sensor_id;sensor_type;location;lat;lon;timestamp;P1;durP1;ratioP1;P2;durP2;ratioP2
34783;SDS011;20998;51.388;7.032;2022-08-21T00:02:15;0.57;;;0.57;;
34783;SDS011;20998;51.388;7.032;2022-08-21T00:04:42;1.07;;;1.07;;
34783;SDS011;20998;51.388;7.032;2022-08-21T00:07:08;5.30;;;1.37;;
34783;SDS011;20998;51.388;7.032;2022-08-21T00:09:34;0.57;;;0.57;;
34783;SDS011;20998;51.388;7.032;2022-08-21T00:12:00;1.20;;;1.10;;
34783;SDS011;20998;51.388;7.032;2022-08-21T00:14:26;2.33;;;1.20;;
34783;SDS011;20998;51.388;7.032;2022-08-21T00:16:52;1.07;;;1.07;;
34783;SDS011;20998;51.388;7.032;2022-08-21T00:19:18;0.90;;;0.90;;
34783;SDS011;20998;51.388;7.032;2022-08-21T00:21:44;1.07;;;0.97;;
34783;SDS011;20998;51.388;7.032;2022-08-21T00:24:10;2.87;;;0.60;;
34783;SDS011;20998;51.388;7.032;2022-08-21T00:26:36;2.03;;;0.97;;
34783;SDS011;20998;51.388;7.032;2022-08-21T00:29:03;2.50;;;1.43;;
34783;SDS011;20998;51.388;7.032;2022-08-21T00:31:28;1.17;;;1.00;;
34783;SDS011;20998;51.388;7.032;2022-08-21T00:33:54;0.87;;;0.83;;
34783;SDS011;20998;51.388;7.032;2022-08-21T00:36:20;5.40;;;1.03;;
34783;SDS011;20998;51.388;7.032;2022-08-21T00:38:46;2.50;;;1.83;;
34783;SDS011;20998;51.388;7.032;2022-08-21T00:41:12;0.53;;;0.53;;
34783;SDS011;20998;51.388;7.032;2022-08-21T00:43:38;0.80;;;0.80;;
34783;SDS011;20998;51.388;7.032;2022-08-21T00:46:05;14.10;;;1.47;;
34783;SDS011;20998;51.388;7.032;2022-08-21T00:48:31;0.50;;;0.50;;
34783;SDS011;20998;51.388;7.032;2022-08-21T00:51:00;2.20;;;1.00;;
34783;SDS011;20998;51.388;7.032;2022-08-21T00:53:27;0.50;;;0.50;;
34783;SDS011;20998;51.388;7.032;2022-08-21T00:55:53;8.57;;;1.60;;
34783;SDS011;20998;51.388;7.032;2022-08-21T00:58:20;0.93;;;0.87;;
34783;SDS011;20998;51.388;7.032;2022-08-21T01:00:48;1.27;;;0.90;;
34783;SDS011;20998;51.388;7.032;2022-08-21T01:03:16;13.03;;;1.47;;
34783;SDS011;20998;51.388;7.032;2022-08-21T01:05:45;0.90;;;0.90;;
34783;SDS011;20998;51.388;7.032;2022-08-21T01:08:11;0.90;;;0.90;;
34783;SDS011;20998;51.388;7.032;2022-08-21T01:10:40;1.23;;;1.13;;
34783;SDS011;20998;51.388;7.032;2022-08-21T01:13:07;14.77;;;0.90;;
34783;SDS011;20998;51.388;7.032;2022-08-21T01:15:35;1.37;;;1.27;;
34783;SDS011;20998;51.388;7.032;2022-08-21T01:18:04;1.00;;;0.77;;
34783;SDS011;20998;51.388;7.032;2022-08-21T01:20:33;0.90;;;0.83;;
34783;SDS011;20998;51.388;7.032;2022-08-21T01:23:04;1.83;;;0.70;;
34783;SDS011;20998;51.388;7.032;2022-08-21T01:25:30;0.73;;;0.73;;
34783;SDS011;20998;51.388;7.032;2022-08-21T01:27:57;0.70;;;0.70;;
34783;SDS011;20998;51.388;7.032;2022-08-21T01:30:27;1.43;;;0.97;;
34783;SDS011;20998;51.388;7.032;2022-08-21T01:32:53;2.37;;;1.47;;
34783;SDS011;20998;51.388;7.032;2022-08-21T01:35:20;0.60;;;0.60;;
34783;SDS011;20998;51.388;7.032;2022-08-21T01:37:47;1.07;;;0.97;;
34783;SDS011;20998;51.388;7.032;2022-08-21T01:40:15;1.40;;;1.30;;
34783;SDS011;20998;51.388;7.032;2022-08-21T01:42:41;1.33;;;0.97;;
34783;SDS011;20998;51.388;7.032;2022-08-21T01:45:08;4.07;;;1.57;;
34783;SDS011;20998;51.388;7.032;2022-08-21T01:47:34;4.03;;;2.00;;
34783;SDS011;20998;51.388;7.032;2022-08-21T01:50:01;1.10;;;1.00;;
34783;SDS011;20998;51.388;7.032;2022-08-21T01:52:27;1.00;;;1.00;;
34783;SDS011;20998;51.388;7.032;2022-08-21T01:54:54;0.63;;;0.60;;
34783;SDS011;20998;51.388;7.032;2022-08-21T01:57:20;1.23;;;1.13;;
34783;SDS011;20998;51.388;7.032;2022-08-21T01:59:46;0.73;;;0.70;;
34783;SDS011;20998;51.388;7.032;2022-08-21T02:02:12;2.33;;;1.43;;
34783;SDS011;20998;51.388;7.032;2022-08-21T02:04:38;8.83;;;1.80;;
34783;SDS011;20998;51.388;7.032;2022-08-21T02:07:04;8.23;;;1.20;;
34783;SDS011;20998;51.388;7.032;2022-08-21T02:09:30;2.70;;;1.03;;
34783;SDS011;20998;51.388;7.032;2022-08-21T02:11:56;5.17;;;1.10;;
34783;SDS011;20998;51.388;7.032;2022-08-21T02:14:22;4.27;;;2.33;;
34783;SDS011;20998;51.388;7.032;2022-08-21T02:16:48;1.23;;;1.03;;
34783;SDS011;20998;51.388;7.032;2022-08-21T02:19:14;1.37;;;0.97;;
34783;SDS011;20998;51.388;7.032;2022-08-21T02:21:40;0.47;;;0.47;;
34783;SDS011;20998;51.388;7.032;2022-08-21T02:24:06;1.30;;;1.20;;
34783;SDS011;20998;51.388;7.032;2022-08-21T02:26:32;1.20;;;0.90;;
34783;SDS011;20998;51.388;7.032;2022-08-21T02:28:59;1.63;;;1.40;;
34783;SDS011;20998;51.388;7.032;2022-08-21T02:31:25;7.87;;;1.50;;
34783;SDS011;20998;51.388;7.032;2022-08-21T02:33:51;1.43;;;1.27;;
34783;SDS011;20998;51.388;7.032;2022-08-21T02:36:17;1.20;;;1.10;;
34783;SDS011;20998;51.388;7.032;2022-08-21T02:38:44;0.80;;;0.80;;
34783;SDS011;20998;51.388;7.032;2022-08-21T02:41:11;2.43;;;1.43;;
34783;SDS011;20998;51.388;7.032;2022-08-21T02:43:44;1.27;;;1.17;;
34783;SDS011;20998;51.388;7.032;2022-08-21T02:46:11;1.40;;;1.30;;
34783;SDS011;20998;51.388;7.032;2022-08-21T02:48:38;0.93;;;0.90;;
34783;SDS011;20998;51.388;7.032;2022-08-21T02:51:10;1.70;;;1.30;;
34783;SDS011;20998;51.388;7.032;2022-08-21T02:53:38;2.77;;;1.20;;
34783;SDS011;20998;51.388;7.032;2022-08-21T02:56:05;1.40;;;1.30;;
34783;SDS011;20998;51.388;7.032;2022-08-21T02:58:34;1.13;;;1.03;;
34783;SDS011;20998;51.388;7.032;2022-08-21T03:01:03;14.60;;;2.27;;
34783;SDS011;20998;51.388;7.032;2022-08-21T03:03:29;1.73;;;1.63;;
34783;SDS011;20998;51.388;7.032;2022-08-21T03:05:56;2.90;;;1.20;;
34783;SDS011;20998;51.388;7.032;2022-08-21T03:08:22;2.20;;;1.47;;
34783;SDS011;20998;51.388;7.032;2022-08-21T03:10:49;3.43;;;1.33;;
34783;SDS011;20998;51.388;7.032;2022-08-21T03:13:16;1.37;;;1.27;;
34783;SDS011;20998;51.388;7.032;2022-08-21T03:15:42;3.17;;;1.00;;
34783;SDS011;20998;51.388;7.032;2022-08-21T03:18:09;8.70;;;1.97;;
34783;SDS011;20998;51.388;7.032;2022-08-21T03:20:36;0.60;;;0.60;;
34783;SDS011;20998;51.388;7.032;2022-08-21T03:23:03;1.20;;;1.10;;
34783;SDS011;20998;51.388;7.032;2022-08-21T03:25:30;0.80;;;0.80;;
34783;SDS011;20998;51.388;7.032;2022-08-21T03:28:03;1.43;;;1.33;;
34783;SDS011;20998;51.388;7.032;2022-08-21T03:30:29;0.90;;;0.83;;
34783;SDS011;20998;51.388;7.032;2022-08-21T03:32:59;3.60;;;1.17;;
34783;SDS011;20998;51.388;7.032;2022-08-21T03:35:25;1.13;;;0.80;;
34783;SDS011;20998;51.388;7.032;2022-08-21T03:37:52;3.00;;;1.90;;
34783;SDS011;20998;51.388;7.032;2022-08-21T03:40:19;1.70;;;1.17;;
34783;SDS011;20998;51.388;7.032;2022-08-21T03:42:46;0.70;;;0.70;;
34783;SDS011;20998;51.388;7.032;2022-08-21T03:45:12;1.00;;;0.97;;
34783;SDS011;20998;51.388;7.032;2022-08-21T03:47:50;2.13;;;1.40;;
34783;SDS011;20998;51.388;7.032;2022-08-21T03:50:28;0.90;;;0.90;;
34783;SDS011;20998;51.388;7.032;2022-08-21T03:52:55;1.10;;;0.97;;
34783;SDS011;20998;51.388;7.032;2022-08-21T03:55:21;1.00;;;1.00;;
34783;SDS011;20998;51.388;7.032;2022-08-21T03:57:47;1.40;;;1.30;;
34783;SDS011;20998;51.388;7.032;2022-08-21T04:00:14;3.60;;;1.67;;
34783;SDS011;20998;51.388;7.032;2022-08-21T04:02:41;1.60;;;1.37;;
34783;SDS011;20998;51.388;7.032;2022-08-21T04:05:08;1.30;;;1.20;;
34783;SDS011;20998;51.388;7.032;2022-08-21T04:07:35;2.07;;;1.43;;
34783;SDS011;20998;51.388;7.032;2022-08-21T04:10:01;3.27;;;1.27;;
34783;SDS011;20998;51.388;7.032;2022-08-21T04:12:27;2.60;;;1.40;;
34783;SDS011;20998;51.388;7.032;2022-08-21T04:14:53;3.03;;;1.63;;
34783;SDS011;20998;51.388;7.032;2022-08-21T04:17:19;1.47;;;1.37;;
34783;SDS011;20998;51.388;7.032;2022-08-21T04:19:45;1.30;;;1.20;;
34783;SDS011;20998;51.388;7.032;2022-08-21T04:22:11;1.07;;;1.00;;
34783;SDS011;20998;51.388;7.032;2022-08-21T04:24:37;1.93;;;1.40;;
34783;SDS011;20998;51.388;7.032;2022-08-21T04:27:03;0.80;;;0.80;;
34783;SDS011;20998;51.388;7.032;2022-08-21T04:29:29;8.13;;;1.77;;
34783;SDS011;20998;51.388;7.032;2022-08-21T04:31:55;1.27;;;1.17;;
34783;SDS011;20998;51.388;7.032;2022-08-21T04:34:21;0.90;;;0.80;;
34783;SDS011;20998;51.388;7.032;2022-08-21T04:36:47;1.53;;;1.20;;
34783;SDS011;20998;51.388;7.032;2022-08-21T04:39:13;1.50;;;1.10;;
34783;SDS011;20998;51.388;7.032;2022-08-21T04:41:39;1.27;;;1.17;;
34783;SDS011;20998;51.388;7.032;2022-08-21T04:44:06;1.03;;;0.77;;
34783;SDS011;20998;51.388;7.032;2022-08-21T04:46:33;1.10;;;1.00;;
34783;SDS011;20998;51.388;7.032;2022-08-21T04:48:59;2.13;;;1.73;;
34783;SDS011;20998;51.388;7.032;2022-08-21T04:51:27;1.80;;;1.30;;
34783;SDS011;20998;51.388;7.032;2022-08-21T04:54:00;0.80;;;0.80;;
34783;SDS011;20998;51.388;7.032;2022-08-21T04:56:47;5.30;;;1.10;;
34783;SDS011;20998;51.388;7.032;2022-08-21T04:59:21;2.03;;;1.30;;
34783;SDS011;20998;51.388;7.032;2022-08-21T05:01:53;1.67;;;1.53;;
34783;SDS011;20998;51.388;7.032;2022-08-21T05:04:21;2.63;;;1.60;;
34783;SDS011;20998;51.388;7.032;2022-08-21T05:06:50;1.73;;;1.43;;
34783;SDS011;20998;51.388;7.032;2022-08-21T05:09:21;1.70;;;1.60;;
34783;SDS011;20998;51.388;7.032;2022-08-21T05:11:49;2.10;;;1.83;;
34783;SDS011;20998;51.388;7.032;2022-08-21T05:14:16;1.53;;;1.43;;
34783;SDS011;20998;51.388;7.032;2022-08-21T05:16:42;2.13;;;1.93;;
34783;SDS011;20998;51.388;7.032;2022-08-21T05:19:09;1.50;;;1.40;;
34783;SDS011;20998;51.388;7.032;2022-08-21T05:21:35;2.07;;;1.87;;
34783;SDS011;20998;51.388;7.032;2022-08-21T05:24:04;2.30;;;1.73;;
34783;SDS011;20998;51.388;7.032;2022-08-21T05:26:30;2.87;;;2.67;;
34783;SDS011;20998;51.388;7.032;2022-08-21T05:28:56;2.67;;;2.43;;
34783;SDS011;20998;51.388;7.032;2022-08-21T05:31:22;6.07;;;2.93;;
34783;SDS011;20998;51.388;7.032;2022-08-21T05:33:48;3.80;;;2.40;;
34783;SDS011;20998;51.388;7.032;2022-08-21T05:36:14;13.30;;;3.27;;
34783;SDS011;20998;51.388;7.032;2022-08-21T05:38:41;4.80;;;2.80;;
34783;SDS011;20998;51.388;7.032;2022-08-21T05:41:08;3.73;;;3.23;;
34783;SDS011;20998;51.388;7.032;2022-08-21T05:43:34;2.40;;;2.20;;
34783;SDS011;20998;51.388;7.032;2022-08-21T05:46:01;5.13;;;3.20;;
34783;SDS011;20998;51.388;7.032;2022-08-21T05:48:29;15.40;;;2.60;;
34783;SDS011;20998;51.388;7.032;2022-08-21T05:50:56;6.80;;;3.80;;
34783;SDS011;20998;51.388;7.032;2022-08-21T05:53:23;2.57;;;2.37;;
34783;SDS011;20998;51.388;7.032;2022-08-21T05:55:49;3.13;;;2.83;;
34783;SDS011;20998;51.388;7.032;2022-08-21T05:58:20;2.77;;;2.53;;
34783;SDS011;20998;51.388;7.032;2022-08-21T06:00:47;3.57;;;2.30;;
34783;SDS011;20998;51.388;7.032;2022-08-21T06:03:16;2.60;;;2.10;;
34783;SDS011;20998;51.388;7.032;2022-08-21T06:05:44;2.00;;;1.70;;
34783;SDS011;20998;51.388;7.032;2022-08-21T06:08:10;2.97;;;2.70;;
34783;SDS011;20998;51.388;7.032;2022-08-21T06:10:36;3.87;;;2.33;;
34783;SDS011;20998;51.388;7.032;2022-08-21T06:13:03;2.40;;;2.20;;
34783;SDS011;20998;51.388;7.032;2022-08-21T06:15:29;2.77;;;2.57;;
34783;SDS011;20998;51.388;7.032;2022-08-21T06:17:55;3.30;;;2.50;;
34783;SDS011;20998;51.388;7.032;2022-08-21T06:20:21;3.93;;;2.70;;
34783;SDS011;20998;51.388;7.032;2022-08-21T06:22:47;1.70;;;1.60;;
34783;SDS011;20998;51.388;7.032;2022-08-21T06:25:13;2.93;;;2.33;;
34783;SDS011;20998;51.388;7.032;2022-08-21T06:27:39;2.07;;;1.80;;
34783;SDS011;20998;51.388;7.032;2022-08-21T06:30:06;2.67;;;2.10;;
34783;SDS011;20998;51.388;7.032;2022-08-21T06:32:32;8.27;;;2.70;;
34783;SDS011;20998;51.388;7.032;2022-08-21T06:34:58;2.57;;;2.20;;
34783;SDS011;20998;51.388;7.032;2022-08-21T06:37:24;3.10;;;2.50;;
34783;SDS011;20998;51.388;7.032;2022-08-21T06:39:50;9.40;;;3.27;;
34783;SDS011;20998;51.388;7.032;2022-08-21T06:42:17;5.60;;;2.97;;
34783;SDS011;20998;51.388;7.032;2022-08-21T06:44:43;5.30;;;2.53;;
34783;SDS011;20998;51.388;7.032;2022-08-21T06:47:09;2.60;;;2.40;;
34783;SDS011;20998;51.388;7.032;2022-08-21T06:49:35;2.60;;;2.03;;
34783;SDS011;20998;51.388;7.032;2022-08-21T06:52:01;3.23;;;2.20;;
34783;SDS011;20998;51.388;7.032;2022-08-21T06:54:27;5.00;;;2.50;;
34783;SDS011;20998;51.388;7.032;2022-08-21T06:56:53;5.50;;;2.53;;
34783;SDS011;20998;51.388;7.032;2022-08-21T06:59:19;2.03;;;1.83;;
34783;SDS011;20998;51.388;7.032;2022-08-21T07:01:45;2.67;;;2.47;;
34783;SDS011;20998;51.388;7.032;2022-08-21T07:04:11;2.47;;;2.13;;
34783;SDS011;20998;51.388;7.032;2022-08-21T07:06:36;3.80;;;2.13;;
34783;SDS011;20998;51.388;7.032;2022-08-21T07:09:02;9.73;;;2.60;;
34783;SDS011;20998;51.388;7.032;2022-08-21T07:11:28;2.20;;;2.07;;
34783;SDS011;20998;51.388;7.032;2022-08-21T07:13:54;2.63;;;2.20;;
34783;SDS011;20998;51.388;7.032;2022-08-21T07:16:21;4.60;;;1.83;;
34783;SDS011;20998;51.388;7.032;2022-08-21T07:18:47;2.53;;;1.80;;
34783;SDS011;20998;51.388;7.032;2022-08-21T07:21:14;3.27;;;2.63;;
34783;SDS011;20998;51.388;7.032;2022-08-21T07:23:41;5.67;;;3.77;;
34783;SDS011;20998;51.388;7.032;2022-08-21T07:26:11;4.33;;;1.80;;
34783;SDS011;20998;51.388;7.032;2022-08-21T07:28:38;4.70;;;2.67;;
34783;SDS011;20998;51.388;7.032;2022-08-21T07:31:04;1.70;;;1.33;;
34783;SDS011;20998;51.388;7.032;2022-08-21T07:33:32;1.67;;;1.57;;
34783;SDS011;20998;51.388;7.032;2022-08-21T07:35:59;1.70;;;1.60;;
34783;SDS011;20998;51.388;7.032;2022-08-21T07:38:26;2.23;;;1.77;;
34783;SDS011;20998;51.388;7.032;2022-08-21T07:40:52;4.73;;;2.27;;
34783;SDS011;20998;51.388;7.032;2022-08-21T07:43:20;2.57;;;1.37;;
34783;SDS011;20998;51.388;7.032;2022-08-21T07:45:47;3.43;;;1.80;;
34783;SDS011;20998;51.388;7.032;2022-08-21T07:48:14;18.27;;;1.93;;
34783;SDS011;20998;51.388;7.032;2022-08-21T07:50:40;1.33;;;1.10;;
34783;SDS011;20998;51.388;7.032;2022-08-21T07:53:07;5.50;;;1.50;;
34783;SDS011;20998;51.388;7.032;2022-08-21T07:55:34;3.83;;;1.30;;
34783;SDS011;20998;51.388;7.032;2022-08-21T07:58:00;6.27;;;2.20;;
34783;SDS011;20998;51.388;7.032;2022-08-21T08:00:27;5.13;;;2.13;;
34783;SDS011;20998;51.388;7.032;2022-08-21T08:02:54;3.17;;;2.00;;
34783;SDS011;20998;51.388;7.032;2022-08-21T08:05:21;3.70;;;1.67;;
34783;SDS011;20998;51.388;7.032;2022-08-21T08:07:49;2.00;;;1.60;;
34783;SDS011;20998;51.388;7.032;2022-08-21T08:10:16;6.47;;;2.47;;
34783;SDS011;20998;51.388;7.032;2022-08-21T08:12:42;3.42;;;2.22;;
34783;SDS011;20998;51.388;7.032;2022-08-21T08:15:10;1.85;;;1.63;;
34783;SDS011;20998;51.388;7.032;2022-08-21T08:17:38;3.40;;;1.38;;
34783;SDS011;20998;51.388;7.032;2022-08-21T08:20:07;2.17;;;1.77;;
34783;SDS011;20998;51.388;7.032;2022-08-21T08:22:35;4.90;;;1.55;;
34783;SDS011;20998;51.388;7.032;2022-08-21T08:25:02;1.73;;;1.58;;
34783;SDS011;20998;51.388;7.032;2022-08-21T08:27:29;2.35;;;1.70;;
34783;SDS011;20998;51.388;7.032;2022-08-21T08:29:55;2.05;;;1.05;;
34783;SDS011;20998;51.388;7.032;2022-08-21T08:32:20;1.60;;;1.33;;
34783;SDS011;20998;51.388;7.032;2022-08-21T08:34:47;1.10;;;1.02;;
34783;SDS011;20998;51.388;7.032;2022-08-21T08:37:16;2.85;;;1.50;;
34783;SDS011;20998;51.388;7.032;2022-08-21T08:39:42;0.55;;;0.55;;
34783;SDS011;20998;51.388;7.032;2022-08-21T08:42:12;1.83;;;1.10;;
34783;SDS011;20998;51.388;7.032;2022-08-21T08:44:42;1.10;;;1.00;;
34783;SDS011;20998;51.388;7.032;2022-08-21T08:47:11;5.80;;;1.50;;
34783;SDS011;20998;51.388;7.032;2022-08-21T08:50:01;2.20;;;1.33;;
34783;SDS011;20998;51.388;7.032;2022-08-21T08:52:32;3.38;;;1.23;;
34783;SDS011;20998;51.388;7.032;2022-08-21T08:57:32;14.45;;;1.67;;
34783;SDS011;20998;51.388;7.032;2022-08-21T08:59:59;1.52;;;0.95;;
34783;SDS011;20998;51.388;7.032;2022-08-21T09:02:26;1.17;;;0.80;;
34783;SDS011;20998;51.388;7.032;2022-08-21T09:04:52;1.40;;;0.77;;
34783;SDS011;20998;51.388;7.032;2022-08-21T09:07:25;3.00;;;0.73;;
34783;SDS011;20998;51.388;7.032;2022-08-21T09:12:43;1.02;;;0.90;;
34783;SDS011;20998;51.388;7.032;2022-08-21T09:18:44;2.03;;;0.95;;
34783;SDS011;20998;51.388;7.032;2022-08-21T09:24:22;2.80;;;0.88;;
34783;SDS011;20998;51.388;7.032;2022-08-21T09:27:07;2.75;;;1.00;;
34783;SDS011;20998;51.388;7.032;2022-08-21T09:29:37;3.97;;;0.75;;
34783;SDS011;20998;51.388;7.032;2022-08-21T09:32:09;0.40;;;0.40;;
34783;SDS011;20998;51.388;7.032;2022-08-21T09:34:54;1.67;;;0.95;;
34783;SDS011;20998;51.388;7.032;2022-08-21T09:37:20;1.70;;;0.93;;
34783;SDS011;20998;51.388;7.032;2022-08-21T09:39:45;1.02;;;0.70;;
34783;SDS011;20998;51.388;7.032;2022-08-21T09:42:11;4.72;;;0.90;;
34783;SDS011;20998;51.388;7.032;2022-08-21T09:44:48;2.05;;;0.73;;
34783;SDS011;20998;51.388;7.032;2022-08-21T09:47:18;6.45;;;1.10;;
34783;SDS011;20998;51.388;7.032;2022-08-21T09:49:43;1.42;;;0.77;;
34783;SDS011;20998;51.388;7.032;2022-08-21T09:52:19;0.82;;;0.73;;
34783;SDS011;20998;51.388;7.032;2022-08-21T09:54:49;2.05;;;1.08;;
34783;SDS011;20998;51.388;7.032;2022-08-21T09:57:19;1.38;;;0.60;;
34783;SDS011;20998;51.388;7.032;2022-08-21T10:00:24;0.98;;;0.70;;
34783;SDS011;20998;51.388;7.032;2022-08-21T10:02:54;3.47;;;0.73;;
34783;SDS011;20998;51.388;7.032;2022-08-21T10:05:50;3.08;;;0.60;;
34783;SDS011;20998;51.388;7.032;2022-08-21T10:08:19;6.13;;;1.02;;
34783;SDS011;20998;51.388;7.032;2022-08-21T10:10:45;1.13;;;0.80;;
34783;SDS011;20998;51.388;7.032;2022-08-21T10:16:10;5.47;;;1.20;;
34783;SDS011;20998;51.388;7.032;2022-08-21T10:21:40;3.55;;;0.70;;
34783;SDS011;20998;51.388;7.032;2022-08-21T10:24:19;2.97;;;0.70;;
34783;SDS011;20998;51.388;7.032;2022-08-21T10:27:15;0.55;;;0.55;;
34783;SDS011;20998;51.388;7.032;2022-08-21T10:30:48;1.55;;;0.75;;
34783;SDS011;20998;51.388;7.032;2022-08-21T10:35:56;0.43;;;0.40;;
34783;SDS011;20998;51.388;7.032;2022-08-21T10:38:43;4.25;;;0.70;;
34783;SDS011;20998;51.388;7.032;2022-08-21T10:43:45;3.83;;;1.00;;
34783;SDS011;20998;51.388;7.032;2022-08-21T10:51:33;0.82;;;0.82;;
34783;SDS011;20998;51.388;7.032;2022-08-21T10:56:46;0.73;;;0.73;;
34783;SDS011;20998;51.388;7.032;2022-08-21T11:00:00;1.23;;;0.70;;
34783;SDS011;20998;51.388;7.032;2022-08-21T11:02:20;1.85;;;1.05;;
34783;SDS011;20998;51.388;7.032;2022-08-21T11:05:00;2.20;;;0.95;;
34783;SDS011;20998;51.388;7.032;2022-08-21T11:07:43;3.08;;;1.05;;
34783;SDS011;20998;51.388;7.032;2022-08-21T11:10:33;0.35;;;0.32;;
34783;SDS011;20998;51.388;7.032;2022-08-21T11:13:11;0.70;;;0.60;;
34783;SDS011;20998;51.388;7.032;2022-08-21T11:18:38;0.80;;;0.43;;
34783;SDS011;20998;51.388;7.032;2022-08-21T11:21:25;0.68;;;0.47;;
34783;SDS011;20998;51.388;7.032;2022-08-21T11:27:01;2.58;;;0.90;;
34783;SDS011;20998;51.388;7.032;2022-08-21T11:29:37;7.05;;;0.80;;
34783;SDS011;20998;51.388;7.032;2022-08-21T11:37:20;1.02;;;0.45;;
34783;SDS011;20998;51.388;7.032;2022-08-21T11:40:06;1.55;;;0.63;;
34783;SDS011;20998;51.388;7.032;2022-08-21T11:45:33;1.00;;;0.52;;
34783;SDS011;20998;51.388;7.032;2022-08-21T11:48:12;0.85;;;0.45;;
34783;SDS011;20998;51.388;7.032;2022-08-21T11:50:59;1.30;;;0.47;;
34783;SDS011;20998;51.388;7.032;2022-08-21T11:53:30;0.30;;;0.30;;
34783;SDS011;20998;51.388;7.032;2022-08-21T11:58:47;4.97;;;0.68;;
34783;SDS011;20998;51.388;7.032;2022-08-21T12:01:16;2.33;;;0.85;;
34783;SDS011;20998;51.388;7.032;2022-08-21T12:03:57;0.73;;;0.63;;
34783;SDS011;20998;51.388;7.032;2022-08-21T12:06:36;0.52;;;0.52;;
34783;SDS011;20998;51.388;7.032;2022-08-21T12:09:09;1.02;;;0.63;;
34783;SDS011;20998;51.388;7.032;2022-08-21T12:11:51;4.40;;;0.68;;
34783;SDS011;20998;51.388;7.032;2022-08-21T12:14:35;2.03;;;0.60;;
34783;SDS011;20998;51.388;7.032;2022-08-21T12:17:04;3.63;;;0.80;;
34783;SDS011;20998;51.388;7.032;2022-08-21T12:19:32;0.45;;;0.43;;
34783;SDS011;20998;51.388;7.032;2022-08-21T12:22:08;2.15;;;0.70;;
34783;SDS011;20998;51.388;7.032;2022-08-21T12:24:41;1.10;;;0.55;;
34783;SDS011;20998;51.388;7.032;2022-08-21T12:29:39;3.30;;;0.70;;
34783;SDS011;20998;51.388;7.032;2022-08-21T12:34:52;0.95;;;0.63;;
34783;SDS011;20998;51.388;7.032;2022-08-21T12:37:38;5.38;;;0.75;;
34783;SDS011;20998;51.388;7.032;2022-08-21T12:40:17;2.65;;;1.20;;
34783;SDS011;20998;51.388;7.032;2022-08-21T12:42:48;1.48;;;0.55;;
34783;SDS011;20998;51.388;7.032;2022-08-21T12:47:47;1.08;;;0.70;;
34783;SDS011;20998;51.388;7.032;2022-08-21T12:50:31;0.30;;;0.30;;
34783;SDS011;20998;51.388;7.032;2022-08-21T12:56:03;1.45;;;0.40;;
34783;SDS011;20998;51.388;7.032;2022-08-21T12:58:33;0.65;;;0.30;;
34783;SDS011;20998;51.388;7.032;2022-08-21T13:01:04;1.75;;;0.60;;
34783;SDS011;20998;51.388;7.032;2022-08-21T13:03:42;0.65;;;0.55;;
34783;SDS011;20998;51.388;7.032;2022-08-21T13:06:12;5.45;;;0.50;;
34783;SDS011;20998;51.388;7.032;2022-08-21T13:08:43;10.93;;;0.80;;
34783;SDS011;20998;51.388;7.032;2022-08-21T13:11:11;1.75;;;0.38;;
34783;SDS011;20998;51.388;7.032;2022-08-21T13:13:42;0.65;;;0.50;;
34783;SDS011;20998;51.388;7.032;2022-08-21T13:16:13;1.80;;;0.45;;
34783;SDS011;20998;51.388;7.032;2022-08-21T13:19:05;1.55;;;0.63;;
34783;SDS011;20998;51.388;7.032;2022-08-21T13:21:33;0.57;;;0.52;;
34783;SDS011;20998;51.388;7.032;2022-08-21T13:26:38;9.70;;;0.82;;
34783;SDS011;20998;51.388;7.032;2022-08-21T13:29:08;0.90;;;0.52;;
34783;SDS011;20998;51.388;7.032;2022-08-21T13:31:36;1.42;;;0.60;;
34783;SDS011;20998;51.388;7.032;2022-08-21T13:34:04;0.57;;;0.32;;
34783;SDS011;20998;51.388;7.032;2022-08-21T13:36:34;0.63;;;0.45;;
34783;SDS011;20998;51.388;7.032;2022-08-21T13:39:03;1.20;;;0.70;;
34783;SDS011;20998;51.388;7.032;2022-08-21T13:41:32;0.57;;;0.40;;
34783;SDS011;20998;51.388;7.032;2022-08-21T13:44:03;4.63;;;0.80;;
34783;SDS011;20998;51.388;7.032;2022-08-21T13:46:31;0.40;;;0.40;;
34783;SDS011;20998;51.388;7.032;2022-08-21T13:49:00;0.73;;;0.55;;
34783;SDS011;20998;51.388;7.032;2022-08-21T13:51:27;2.67;;;1.48;;
34783;SDS011;20998;51.388;7.032;2022-08-21T13:53:54;0.25;;;0.25;;
34783;SDS011;20998;51.388;7.032;2022-08-21T13:56:31;2.63;;;1.02;;
34783;SDS011;20998;51.388;7.032;2022-08-21T13:58:59;2.67;;;0.82;;
34783;SDS011;20998;51.388;7.032;2022-08-21T14:04:21;1.17;;;0.82;;
34783;SDS011;20998;51.388;7.032;2022-08-21T14:06:50;8.23;;;0.90;;
34783;SDS011;20998;51.388;7.032;2022-08-21T14:09:28;0.85;;;0.57;;
34783;SDS011;20998;51.388;7.032;2022-08-21T14:12:14;5.80;;;1.02;;
34783;SDS011;20998;51.388;7.032;2022-08-21T14:14:42;1.52;;;0.60;;
34783;SDS011;20998;51.388;7.032;2022-08-21T14:17:10;1.40;;;0.80;;
34783;SDS011;20998;51.388;7.032;2022-08-21T14:19:50;5.45;;;1.48;;
34783;SDS011;20998;51.388;7.032;2022-08-21T14:25:27;5.57;;;1.05;;
34783;SDS011;20998;51.388;7.032;2022-08-21T14:27:56;8.07;;;0.98;;
34783;SDS011;20998;51.388;7.032;2022-08-21T14:30:34;3.45;;;0.57;;
34783;SDS011;20998;51.388;7.032;2022-08-21T14:33:08;0.30;;;0.30;;
34783;SDS011;20998;51.388;7.032;2022-08-21T14:35:36;2.15;;;0.73;;
34783;SDS011;20998;51.388;7.032;2022-08-21T14:38:02;0.90;;;0.68;;
34783;SDS011;20998;51.388;7.032;2022-08-21T14:40:28;2.10;;;0.77;;
34783;SDS011;20998;51.388;7.032;2022-08-21T14:42:54;0.75;;;0.45;;
34783;SDS011;20998;51.388;7.032;2022-08-21T14:45:25;0.25;;;0.25;;
34783;SDS011;20998;51.388;7.032;2022-08-21T14:47:53;2.08;;;0.55;;
34783;SDS011;20998;51.388;7.032;2022-08-21T14:50:19;0.95;;;0.50;;
34783;SDS011;20998;51.388;7.032;2022-08-21T14:52:45;0.50;;;0.40;;
34783;SDS011;20998;51.388;7.032;2022-08-21T14:55:11;0.40;;;0.40;;
34783;SDS011;20998;51.388;7.032;2022-08-21T14:57:45;0.60;;;0.50;;
34783;SDS011;20998;51.388;7.032;2022-08-21T15:00:16;3.75;;;0.70;;
34783;SDS011;20998;51.388;7.032;2022-08-21T15:02:44;0.85;;;0.50;;
34783;SDS011;20998;51.388;7.032;2022-08-21T15:05:10;5.63;;;0.95;;
34783;SDS011;20998;51.388;7.032;2022-08-21T15:07:37;0.57;;;0.38;;
34783;SDS011;20998;51.388;7.032;2022-08-21T15:10:03;0.82;;;0.82;;
34783;SDS011;20998;51.388;7.032;2022-08-21T15:12:30;0.38;;;0.38;;
34783;SDS011;20998;51.388;7.032;2022-08-21T15:14:56;1.58;;;0.77;;
34783;SDS011;20998;51.388;7.032;2022-08-21T15:17:22;1.17;;;0.60;;
34783;SDS011;20998;51.388;7.032;2022-08-21T15:19:48;1.33;;;0.50;;
34783;SDS011;20998;51.388;7.032;2022-08-21T15:22:14;2.88;;;1.08;;
34783;SDS011;20998;51.388;7.032;2022-08-21T15:24:40;0.40;;;0.40;;
34783;SDS011;20998;51.388;7.032;2022-08-21T15:27:06;0.22;;;0.22;;
34783;SDS011;20998;51.388;7.032;2022-08-21T15:29:34;1.00;;;0.70;;
34783;SDS011;20998;51.388;7.032;2022-08-21T15:34:47;0.63;;;0.57;;
34783;SDS011;20998;51.388;7.032;2022-08-21T15:37:13;0.57;;;0.52;;
34783;SDS011;20998;51.388;7.032;2022-08-21T15:39:39;3.10;;;1.08;;
34783;SDS011;20998;51.388;7.032;2022-08-21T15:42:05;1.05;;;0.57;;
34783;SDS011;20998;51.388;7.032;2022-08-21T15:44:31;0.50;;;0.50;;
34783;SDS011;20998;51.388;7.032;2022-08-21T15:46:58;7.90;;;0.73;;
34783;SDS011;20998;51.388;7.032;2022-08-21T15:49:24;1.00;;;0.80;;
34783;SDS011;20998;51.388;7.032;2022-08-21T15:51:50;0.52;;;0.52;;
34783;SDS011;20998;51.388;7.032;2022-08-21T15:54:16;0.75;;;0.70;;
34783;SDS011;20998;51.388;7.032;2022-08-21T15:56:43;0.65;;;0.35;;
34783;SDS011;20998;51.388;7.032;2022-08-21T15:59:15;1.48;;;1.00;;
34783;SDS011;20998;51.388;7.032;2022-08-21T16:01:43;1.27;;;0.55;;
34783;SDS011;20998;51.388;7.032;2022-08-21T16:04:12;2.17;;;0.50;;
34783;SDS011;20998;51.388;7.032;2022-08-21T16:06:44;0.30;;;0.30;;
34783;SDS011;20998;51.388;7.032;2022-08-21T16:09:10;4.68;;;0.98;;
34783;SDS011;20998;51.388;7.032;2022-08-21T16:11:36;3.22;;;0.70;;